This is the latest recevied weather packets stored in our database for station/object JE3XST-13. If no packets are shown the sender has not sent any weather packets the latest 10 day(s).
| Time | Temp. | Humidity | Pressure | Rain* | Wind** | Luminosity | Snow |
|---|---|---|---|---|---|---|---|
| 1787930669 | 25.56° C | 95% | 1009.4 hPa | 0 mm | - | - | - |
| 1787928869 | 25.56° C | 95% | 1009.8 hPa | 0.51 mm | - | - | - |
| 1787927068 | 25.56° C | 95% | 1009.7 hPa | 0.25 mm | - | - | - |
| 1787925268 | 25.56° C | 95% | 1009.8 hPa | 0.25 mm | - | - | - |
| 1787923468 | 26.11° C | 95% | 1009.9 hPa | 0.51 mm | - | - | - |
| 1787921667 | 26.11° C | 94% | 1009.9 hPa | 0.25 mm | - | - | - |
| 1787919865 | 26.11° C | 94% | 1010.2 hPa | 0.25 mm | - | - | - |
| 1787918064 | 26.11° C | 94% | 1010.2 hPa | 0.51 mm | - | - | - |
| 1787916265 | 26.11° C | 93% | 1010 hPa | 0.51 mm | - | - | - |
| 1787914464 | 26.67° C | 93% | 1009.8 hPa | 0.51 mm | - | - | - |
| 1787912662 | 26.67° C | 92% | 1009.2 hPa | 0.51 mm | - | - | - |
| 1787910861 | 26.67° C | 91% | 1009.3 hPa | 0.51 mm | - | - | - |
| 1787909061 | 27.22° C | 88% | 1009 hPa | 0.51 mm | - | - | - |
| 1787907260 | 27.78° C | 88% | 1009.3 hPa | 0.51 mm | - | - | - |
| 1787905460 | 28.33° C | 87% | 1008.9 hPa | 0.51 mm | - | - | - |
| 1787903659 | 29.44° C | 82% | 1008.6 hPa | 0.51 mm | - | - | - |
| 1787901859 | 30.56° C | 74% | 1008.6 hPa | 0.76 mm | - | - | - |
| 1787900057 | 30.56° C | 75% | 1008.6 hPa | 0.76 mm | - | - | - |
| 1787898256 | 30° C | 76% | 1008.7 hPa | 0.76 mm | - | - | - |
| 1787896456 | 30° C | 76% | 1008.7 hPa | 0.76 mm | - | - | - |
| 1787895625 | 30.56° C | 74% | 1008.8 hPa | 0.76 mm | - | - | - |
| 1787893821 | 29.44° C | 79% | 1009.2 hPa | 1.02 mm | - | - | - |
| 1787892020 | 28.89° C | 82% | 1009.5 hPa | 1.02 mm | - | - | - |
| 1787890220 | 28.33° C | 83% | 1009.9 hPa | 0.76 mm | - | - | - |
| 1787888420 | 27.78° C | 86% | 1010.1 hPa | 1.02 mm | - | - | - |
* Rain latest hour (hover to see other rain measurements)
** Current wind speed in m/s (hover to see current wind gust speed)